Terminal Aerodrome Forecast
Issued by NWS Austin/San Antonio, TX

Home | Current Version | Previous Version | Text Only | Print | Product List | Glossary On
Versions: 1 2 3 4 5 6 7 8 9 10 11 12 13 14 15 16 17 18 19 20 21 22
000
FTUS44 KEWX 250500
TAFDRT
TAF
KDRT 250521Z 2506/2606 35002KT P6SM SCT250
      TEMPO 2510/2514 4SM BR
     FM251500 31004KT P6SM BKN250
     FM251800 33010G20KT P6SM SCT250=

USA.gov is the U.S. government's official web portal to all federal, state and local government web resources and services.